sensor_id;sensor_type;location;lat;lon;timestamp;temperature;humidity
27667;DHT22;15074;50.940;5.282;2023-05-10T00:00:47;13.50;99.90
27667;DHT22;15074;50.940;5.282;2023-05-10T00:03:13;13.50;99.90
27667;DHT22;15074;50.940;5.282;2023-05-10T00:05:38;13.50;99.90
27667;DHT22;15074;50.940;5.282;2023-05-10T00:08:04;13.50;99.90
27667;DHT22;15074;50.940;5.282;2023-05-10T00:10:30;13.50;99.90
27667;DHT22;15074;50.940;5.282;2023-05-10T00:12:55;13.50;99.90
27667;DHT22;15074;50.940;5.282;2023-05-10T00:15:21;13.50;99.90
27667;DHT22;15074;50.940;5.282;2023-05-10T00:17:46;13.60;99.90
27667;DHT22;15074;50.940;5.282;2023-05-10T00:20:12;13.60;99.90
27667;DHT22;15074;50.940;5.282;2023-05-10T00:22:38;13.50;99.90
27667;DHT22;15074;50.940;5.282;2023-05-10T00:25:04;13.50;99.90
27667;DHT22;15074;50.940;5.282;2023-05-10T00:27:30;13.50;99.90
27667;DHT22;15074;50.940;5.282;2023-05-10T00:29:55;13.50;99.90
27667;DHT22;15074;50.940;5.282;2023-05-10T00:32:21;13.50;99.90
27667;DHT22;15074;50.940;5.282;2023-05-10T00:34:46;13.50;99.90
27667;DHT22;15074;50.940;5.282;2023-05-10T00:37:12;13.50;99.90
27667;DHT22;15074;50.940;5.282;2023-05-10T00:39:38;13.50;99.90
27667;DHT22;15074;50.940;5.282;2023-05-10T00:42:03;13.50;99.90
27667;DHT22;15074;50.940;5.282;2023-05-10T00:44:29;13.50;99.90
27667;DHT22;15074;50.940;5.282;2023-05-10T00:46:56;13.40;99.90
27667;DHT22;15074;50.940;5.282;2023-05-10T00:49:22;13.30;99.90
27667;DHT22;15074;50.940;5.282;2023-05-10T00:51:48;13.30;99.90
27667;DHT22;15074;50.940;5.282;2023-05-10T00:54:15;13.20;99.90
27667;DHT22;15074;50.940;5.282;2023-05-10T00:56:41;13.20;99.90
27667;DHT22;15074;50.940;5.282;2023-05-10T00:59:08;13.20;99.90
27667;DHT22;15074;50.940;5.282;2023-05-10T01:01:34;13.30;99.90
27667;DHT22;15074;50.940;5.282;2023-05-10T01:04:01;13.30;99.90
27667;DHT22;15074;50.940;5.282;2023-05-10T01:06:28;13.20;99.90
27667;DHT22;15074;50.940;5.282;2023-05-10T01:08:55;13.30;99.90
27667;DHT22;15074;50.940;5.282;2023-05-10T01:11:21;13.20;99.90
27667;DHT22;15074;50.940;5.282;2023-05-10T01:13:52;13.30;99.90
27667;DHT22;15074;50.940;5.282;2023-05-10T01:16:20;13.20;99.90
27667;DHT22;15074;50.940;5.282;2023-05-10T01:18:46;13.20;99.90
27667;DHT22;15074;50.940;5.282;2023-05-10T01:38:49;13.20;99.90
27667;DHT22;15074;50.940;5.282;2023-05-10T01:46:41;13.20;99.90
27667;DHT22;15074;50.940;5.282;2023-05-10T01:49:34;13.20;99.90
27667;DHT22;15074;50.940;5.282;2023-05-10T01:52:09;13.20;99.90
27667;DHT22;15074;50.940;5.282;2023-05-10T01:54:38;13.20;99.90
27667;DHT22;15074;50.940;5.282;2023-05-10T01:57:09;13.20;99.90
27667;DHT22;15074;50.940;5.282;2023-05-10T01:59:38;13.10;99.90
27667;DHT22;15074;50.940;5.282;2023-05-10T02:02:07;13.10;99.90
27667;DHT22;15074;50.940;5.282;2023-05-10T02:04:35;13.00;99.90
27667;DHT22;15074;50.940;5.282;2023-05-10T02:07:03;13.00;99.90
27667;DHT22;15074;50.940;5.282;2023-05-10T02:09:31;13.10;99.90
27667;DHT22;15074;50.940;5.282;2023-05-10T02:11:58;13.10;99.90
27667;DHT22;15074;50.940;5.282;2023-05-10T02:14:25;13.20;99.90
27667;DHT22;15074;50.940;5.282;2023-05-10T02:16:53;13.10;99.90
27667;DHT22;15074;50.940;5.282;2023-05-10T02:19:22;13.10;99.90
27667;DHT22;15074;50.940;5.282;2023-05-10T02:21:49;13.20;99.90
27667;DHT22;15074;50.940;5.282;2023-05-10T02:24:17;13.10;99.90
27667;DHT22;15074;50.940;5.282;2023-05-10T02:26:44;13.10;99.90
27667;DHT22;15074;50.940;5.282;2023-05-10T02:29:11;13.20;99.90
27667;DHT22;15074;50.940;5.282;2023-05-10T02:31:38;13.10;99.90
27667;DHT22;15074;50.940;5.282;2023-05-10T02:34:05;13.10;99.90
27667;DHT22;15074;50.940;5.282;2023-05-10T02:36:33;13.00;99.90
27667;DHT22;15074;50.940;5.282;2023-05-10T02:39:00;13.00;99.90
27667;DHT22;15074;50.940;5.282;2023-05-10T02:41:27;13.00;99.90
27667;DHT22;15074;50.940;5.282;2023-05-10T02:43:56;13.10;99.90
27667;DHT22;15074;50.940;5.282;2023-05-10T02:46:24;12.90;99.90
27667;DHT22;15074;50.940;5.282;2023-05-10T02:48:50;12.90;99.90
27667;DHT22;15074;50.940;5.282;2023-05-10T02:51:16;13.00;99.90
27667;DHT22;15074;50.940;5.282;2023-05-10T02:53:45;13.00;99.90
27667;DHT22;15074;50.940;5.282;2023-05-10T02:56:14;13.10;99.90
27667;DHT22;15074;50.940;5.282;2023-05-10T02:58:42;13.00;99.90
27667;DHT22;15074;50.940;5.282;2023-05-10T03:01:08;13.00;99.90
27667;DHT22;15074;50.940;5.282;2023-05-10T03:03:34;13.00;99.90
27667;DHT22;15074;50.940;5.282;2023-05-10T03:06:00;13.00;99.90
27667;DHT22;15074;50.940;5.282;2023-05-10T03:08:26;13.00;99.90
27667;DHT22;15074;50.940;5.282;2023-05-10T03:14:10;13.00;99.90
27667;DHT22;15074;50.940;5.282;2023-05-10T03:16:45;13.00;99.90
27667;DHT22;15074;50.940;5.282;2023-05-10T03:19:22;13.00;99.90
27667;DHT22;15074;50.940;5.282;2023-05-10T03:21:52;13.10;99.90
27667;DHT22;15074;50.940;5.282;2023-05-10T03:24:21;13.10;99.90
27667;DHT22;15074;50.940;5.282;2023-05-10T03:26:49;13.10;99.90
27667;DHT22;15074;50.940;5.282;2023-05-10T03:29:16;13.10;99.90
27667;DHT22;15074;50.940;5.282;2023-05-10T03:31:42;13.10;99.90
27667;DHT22;15074;50.940;5.282;2023-05-10T03:34:08;13.20;99.90
27667;DHT22;15074;50.940;5.282;2023-05-10T03:36:34;13.10;99.90
27667;DHT22;15074;50.940;5.282;2023-05-10T03:38:59;13.20;99.90
27667;DHT22;15074;50.940;5.282;2023-05-10T03:41:25;13.20;99.90
27667;DHT22;15074;50.940;5.282;2023-05-10T03:43:51;13.20;99.90
27667;DHT22;15074;50.940;5.282;2023-05-10T03:46:17;13.20;99.90
27667;DHT22;15074;50.940;5.282;2023-05-10T03:48:43;13.20;99.90
27667;DHT22;15074;50.940;5.282;2023-05-10T03:51:08;13.10;99.90
27667;DHT22;15074;50.940;5.282;2023-05-10T03:53:34;13.20;99.90
27667;DHT22;15074;50.940;5.282;2023-05-10T03:55:59;13.20;99.90
27667;DHT22;15074;50.940;5.282;2023-05-10T03:58:25;13.20;99.90
27667;DHT22;15074;50.940;5.282;2023-05-10T04:00:51;13.20;99.90
27667;DHT22;15074;50.940;5.282;2023-05-10T04:03:17;13.20;99.90
27667;DHT22;15074;50.940;5.282;2023-05-10T04:05:43;13.20;99.90
27667;DHT22;15074;50.940;5.282;2023-05-10T04:08:09;13.20;99.90
27667;DHT22;15074;50.940;5.282;2023-05-10T04:10:35;13.20;99.90
27667;DHT22;15074;50.940;5.282;2023-05-10T04:13:00;13.20;99.90
27667;DHT22;15074;50.940;5.282;2023-05-10T04:15:26;13.10;99.90
27667;DHT22;15074;50.940;5.282;2023-05-10T04:17:52;13.10;99.90
27667;DHT22;15074;50.940;5.282;2023-05-10T04:20:17;13.20;99.90
27667;DHT22;15074;50.940;5.282;2023-05-10T04:22:43;13.20;99.90
27667;DHT22;15074;50.940;5.282;2023-05-10T04:25:09;13.20;99.90
27667;DHT22;15074;50.940;5.282;2023-05-10T04:27:35;13.30;99.90
27667;DHT22;15074;50.940;5.282;2023-05-10T04:30:01;13.20;99.90
27667;DHT22;15074;50.940;5.282;2023-05-10T04:32:27;13.10;99.90
27667;DHT22;15074;50.940;5.282;2023-05-10T04:34:53;13.00;99.90
27667;DHT22;15074;50.940;5.282;2023-05-10T04:37:19;13.00;99.90
27667;DHT22;15074;50.940;5.282;2023-05-10T04:39:46;13.00;99.90
27667;DHT22;15074;50.940;5.282;2023-05-10T04:42:12;13.00;99.90
27667;DHT22;15074;50.940;5.282;2023-05-10T04:44:40;12.90;99.90
27667;DHT22;15074;50.940;5.282;2023-05-10T04:47:06;12.90;99.90
27667;DHT22;15074;50.940;5.282;2023-05-10T04:49:31;12.90;99.90
27667;DHT22;15074;50.940;5.282;2023-05-10T04:51:57;12.90;99.90
27667;DHT22;15074;50.940;5.282;2023-05-10T04:54:23;12.80;99.90
27667;DHT22;15074;50.940;5.282;2023-05-10T04:56:49;12.80;99.90
27667;DHT22;15074;50.940;5.282;2023-05-10T04:59:14;12.80;99.90
27667;DHT22;15074;50.940;5.282;2023-05-10T05:01:40;12.90;99.90
27667;DHT22;15074;50.940;5.282;2023-05-10T05:04:06;12.90;99.90
27667;DHT22;15074;50.940;5.282;2023-05-10T05:06:32;12.90;99.90
27667;DHT22;15074;50.940;5.282;2023-05-10T05:08:57;12.80;99.90
27667;DHT22;15074;50.940;5.282;2023-05-10T05:11:23;12.80;99.90
27667;DHT22;15074;50.940;5.282;2023-05-10T05:13:49;12.80;99.90
27667;DHT22;15074;50.940;5.282;2023-05-10T05:16:14;12.90;99.90
27667;DHT22;15074;50.940;5.282;2023-05-10T05:18:40;12.80;99.90
27667;DHT22;15074;50.940;5.282;2023-05-10T05:21:19;12.80;99.90
27667;DHT22;15074;50.940;5.282;2023-05-10T05:23:45;12.80;99.90
27667;DHT22;15074;50.940;5.282;2023-05-10T05:26:11;12.80;99.90
27667;DHT22;15074;50.940;5.282;2023-05-10T05:28:37;12.70;99.90
27667;DHT22;15074;50.940;5.282;2023-05-10T05:31:06;12.80;99.90
27667;DHT22;15074;50.940;5.282;2023-05-10T05:33:35;12.80;99.90
27667;DHT22;15074;50.940;5.282;2023-05-10T05:36:02;12.80;99.90
27667;DHT22;15074;50.940;5.282;2023-05-10T05:38:28;12.80;99.90
27667;DHT22;15074;50.940;5.282;2023-05-10T05:40:54;12.90;99.90
27667;DHT22;15074;50.940;5.282;2023-05-10T05:43:19;12.90;99.90
27667;DHT22;15074;50.940;5.282;2023-05-10T05:45:45;12.90;99.90
27667;DHT22;15074;50.940;5.282;2023-05-10T05:48:11;12.90;99.90
27667;DHT22;15074;50.940;5.282;2023-05-10T05:50:36;13.00;99.90
27667;DHT22;15074;50.940;5.282;2023-05-10T05:53:02;12.90;99.90
27667;DHT22;15074;50.940;5.282;2023-05-10T05:55:28;12.90;99.90
27667;DHT22;15074;50.940;5.282;2023-05-10T05:57:54;12.90;99.90
27667;DHT22;15074;50.940;5.282;2023-05-10T06:00:20;12.90;99.90
27667;DHT22;15074;50.940;5.282;2023-05-10T06:02:47;13.00;99.90
27667;DHT22;15074;50.940;5.282;2023-05-10T06:05:13;13.10;99.90
27667;DHT22;15074;50.940;5.282;2023-05-10T06:07:39;13.10;99.90
27667;DHT22;15074;50.940;5.282;2023-05-10T06:10:08;13.20;99.90
27667;DHT22;15074;50.940;5.282;2023-05-10T06:12:34;13.20;99.90
27667;DHT22;15074;50.940;5.282;2023-05-10T06:14:59;13.20;99.90
27667;DHT22;15074;50.940;5.282;2023-05-10T06:17:26;13.20;99.90
27667;DHT22;15074;50.940;5.282;2023-05-10T06:19:53;13.20;99.90
27667;DHT22;15074;50.940;5.282;2023-05-10T06:22:18;13.30;99.90
27667;DHT22;15074;50.940;5.282;2023-05-10T06:24:44;13.20;99.90
27667;DHT22;15074;50.940;5.282;2023-05-10T06:27:09;13.20;99.90
27667;DHT22;15074;50.940;5.282;2023-05-10T06:29:35;13.40;99.90
27667;DHT22;15074;50.940;5.282;2023-05-10T06:32:01;13.40;99.90
27667;DHT22;15074;50.940;5.282;2023-05-10T06:34:26;13.40;99.90
27667;DHT22;15074;50.940;5.282;2023-05-10T06:36:52;13.40;99.90
27667;DHT22;15074;50.940;5.282;2023-05-10T06:39:18;13.40;99.90
27667;DHT22;15074;50.940;5.282;2023-05-10T06:41:43;13.40;99.90
27667;DHT22;15074;50.940;5.282;2023-05-10T06:44:09;13.40;99.90
27667;DHT22;15074;50.940;5.282;2023-05-10T06:46:35;13.40;99.90
27667;DHT22;15074;50.940;5.282;2023-05-10T06:49:00;13.40;99.90
27667;DHT22;15074;50.940;5.282;2023-05-10T06:51:26;13.30;99.90
27667;DHT22;15074;50.940;5.282;2023-05-10T06:53:52;13.20;99.90
27667;DHT22;15074;50.940;5.282;2023-05-10T06:56:18;13.20;99.90
27667;DHT22;15074;50.940;5.282;2023-05-10T06:58:44;13.40;99.90
27667;DHT22;15074;50.940;5.282;2023-05-10T07:01:09;13.40;99.90
27667;DHT22;15074;50.940;5.282;2023-05-10T07:03:35;13.40;99.90
27667;DHT22;15074;50.940;5.282;2023-05-10T07:06:01;13.50;99.90
27667;DHT22;15074;50.940;5.282;2023-05-10T07:08:29;13.50;99.90
27667;DHT22;15074;50.940;5.282;2023-05-10T07:11:03;13.50;99.90
27667;DHT22;15074;50.940;5.282;2023-05-10T07:13:30;13.40;99.90
27667;DHT22;15074;50.940;5.282;2023-05-10T07:15:56;13.50;99.90
27667;DHT22;15074;50.940;5.282;2023-05-10T07:18:22;13.60;99.90
27667;DHT22;15074;50.940;5.282;2023-05-10T07:20:47;13.60;99.90
27667;DHT22;15074;50.940;5.282;2023-05-10T07:23:13;13.60;99.90
27667;DHT22;15074;50.940;5.282;2023-05-10T07:25:38;13.70;99.90
27667;DHT22;15074;50.940;5.282;2023-05-10T07:28:04;13.70;99.90
27667;DHT22;15074;50.940;5.282;2023-05-10T07:30:30;13.60;99.90
27667;DHT22;15074;50.940;5.282;2023-05-10T07:32:56;13.50;99.90
27667;DHT22;15074;50.940;5.282;2023-05-10T07:35:22;13.60;99.90
27667;DHT22;15074;50.940;5.282;2023-05-10T07:37:47;13.70;99.90
27667;DHT22;15074;50.940;5.282;2023-05-10T07:40:13;13.70;99.90
27667;DHT22;15074;50.940;5.282;2023-05-10T07:42:39;13.70;99.90
27667;DHT22;15074;50.940;5.282;2023-05-10T07:45:05;13.90;99.90
27667;DHT22;15074;50.940;5.282;2023-05-10T07:47:31;13.80;99.90
27667;DHT22;15074;50.940;5.282;2023-05-10T07:49:56;13.80;99.90
27667;DHT22;15074;50.940;5.282;2023-05-10T07:52:22;13.90;99.90
27667;DHT22;15074;50.940;5.282;2023-05-10T07:54:48;13.90;99.90
27667;DHT22;15074;50.940;5.282;2023-05-10T07:57:13;13.90;99.90
27667;DHT22;15074;50.940;5.282;2023-05-10T07:59:40;13.80;99.90
27667;DHT22;15074;50.940;5.282;2023-05-10T08:02:06;13.80;99.90
27667;DHT22;15074;50.940;5.282;2023-05-10T08:04:32;13.80;99.90
27667;DHT22;15074;50.940;5.282;2023-05-10T08:06:57;13.90;99.90
27667;DHT22;15074;50.940;5.282;2023-05-10T08:09:23;14.00;99.90
27667;DHT22;15074;50.940;5.282;2023-05-10T08:11:49;13.80;99.90
27667;DHT22;15074;50.940;5.282;2023-05-10T08:14:16;13.60;99.90
27667;DHT22;15074;50.940;5.282;2023-05-10T08:16:42;13.50;99.90
27667;DHT22;15074;50.940;5.282;2023-05-10T08:19:07;13.30;99.90
27667;DHT22;15074;50.940;5.282;2023-05-10T08:21:33;13.20;99.90
27667;DHT22;15074;50.940;5.282;2023-05-10T08:23:59;13.00;99.90
27667;DHT22;15074;50.940;5.282;2023-05-10T08:26:25;13.00;99.90
27667;DHT22;15074;50.940;5.282;2023-05-10T08:28:51;12.90;99.90
27667;DHT22;15074;50.940;5.282;2023-05-10T08:31:16;12.90;99.90
27667;DHT22;15074;50.940;5.282;2023-05-10T08:33:43;12.90;99.90
27667;DHT22;15074;50.940;5.282;2023-05-10T08:36:09;13.00;99.90
27667;DHT22;15074;50.940;5.282;2023-05-10T08:38:34;13.10;99.90
27667;DHT22;15074;50.940;5.282;2023-05-10T08:41:02;13.10;99.90
27667;DHT22;15074;50.940;5.282;2023-05-10T08:43:28;13.10;99.90
27667;DHT22;15074;50.940;5.282;2023-05-10T08:46:00;13.00;99.90
27667;DHT22;15074;50.940;5.282;2023-05-10T08:48:28;12.90;99.90
27667;DHT22;15074;50.940;5.282;2023-05-10T08:50:58;12.90;99.90
27667;DHT22;15074;50.940;5.282;2023-05-10T08:53:25;12.90;99.90
27667;DHT22;15074;50.940;5.282;2023-05-10T08:55:53;12.80;99.90
27667;DHT22;15074;50.940;5.282;2023-05-10T08:58:19;12.90;99.90
27667;DHT22;15074;50.940;5.282;2023-05-10T09:00:46;12.80;99.90
27667;DHT22;15074;50.940;5.282;2023-05-10T09:03:12;12.90;99.90
27667;DHT22;15074;50.940;5.282;2023-05-10T09:05:38;12.90;99.90
27667;DHT22;15074;50.940;5.282;2023-05-10T09:08:05;12.90;99.90
27667;DHT22;15074;50.940;5.282;2023-05-10T09:10:31;12.90;99.90
27667;DHT22;15074;50.940;5.282;2023-05-10T09:12:58;12.90;99.90
27667;DHT22;15074;50.940;5.282;2023-05-10T09:15:24;12.90;99.90
27667;DHT22;15074;50.940;5.282;2023-05-10T09:17:50;13.00;99.90
27667;DHT22;15074;50.940;5.282;2023-05-10T09:20:16;13.10;99.90
27667;DHT22;15074;50.940;5.282;2023-05-10T09:22:43;13.20;99.90
27667;DHT22;15074;50.940;5.282;2023-05-10T09:25:09;13.30;99.90
27667;DHT22;15074;50.940;5.282;2023-05-10T09:27:37;13.30;99.90
27667;DHT22;15074;50.940;5.282;2023-05-10T09:30:04;13.40;99.90
27667;DHT22;15074;50.940;5.282;2023-05-10T09:32:41;13.50;99.90
27667;DHT22;15074;50.940;5.282;2023-05-10T09:35:15;13.60;99.90
27667;DHT22;15074;50.940;5.282;2023-05-10T09:37:43;13.60;99.90
27667;DHT22;15074;50.940;5.282;2023-05-10T09:40:28;13.80;99.90
27667;DHT22;15074;50.940;5.282;2023-05-10T09:43:02;13.90;99.90
27667;DHT22;15074;50.940;5.282;2023-05-10T09:45:33;13.90;99.90
27667;DHT22;15074;50.940;5.282;2023-05-10T09:48:00;14.00;99.90
27667;DHT22;15074;50.940;5.282;2023-05-10T09:50:27;14.20;99.90
27667;DHT22;15074;50.940;5.282;2023-05-10T09:53:00;14.40;99.90
27667;DHT22;15074;50.940;5.282;2023-05-10T09:55:48;14.50;99.90
27667;DHT22;15074;50.940;5.282;2023-05-10T09:58:13;14.80;99.90
27667;DHT22;15074;50.940;5.282;2023-05-10T10:00:42;14.60;99.90
27667;DHT22;15074;50.940;5.282;2023-05-10T10:03:14;14.50;99.90
27667;DHT22;15074;50.940;5.282;2023-05-10T10:05:40;14.60;99.90
27667;DHT22;15074;50.940;5.282;2023-05-10T10:08:08;14.60;99.90
27667;DHT22;15074;50.940;5.282;2023-05-10T10:10:33;14.80;99.90
27667;DHT22;15074;50.940;5.282;2023-05-10T10:13:00;14.90;99.90
27667;DHT22;15074;50.940;5.282;2023-05-10T10:15:26;15.00;99.90
27667;DHT22;15074;50.940;5.282;2023-05-10T10:17:52;15.00;99.90
27667;DHT22;15074;50.940;5.282;2023-05-10T10:20:20;15.00;99.90
27667;DHT22;15074;50.940;5.282;2023-05-10T10:22:47;14.90;99.90
27667;DHT22;15074;50.940;5.282;2023-05-10T10:25:15;15.10;99.90
27667;DHT22;15074;50.940;5.282;2023-05-10T10:30:43;15.00;99.90
27667;DHT22;15074;50.940;5.282;2023-05-10T10:35:54;15.00;99.90
27667;DHT22;15074;50.940;5.282;2023-05-10T10:38:20;15.10;99.90
27667;DHT22;15074;50.940;5.282;2023-05-10T10:40:47;15.10;99.90
27667;DHT22;15074;50.940;5.282;2023-05-10T10:43:28;15.00;99.90
27667;DHT22;15074;50.940;5.282;2023-05-10T10:46:17;15.10;99.90
27667;DHT22;15074;50.940;5.282;2023-05-10T10:48:51;15.20;99.90
27667;DHT22;15074;50.940;5.282;2023-05-10T10:51:37;15.20;99.90
27667;DHT22;15074;50.940;5.282;2023-05-10T10:54:29;15.30;99.90
27667;DHT22;15074;50.940;5.282;2023-05-10T10:57:15;15.50;99.90
27667;DHT22;15074;50.940;5.282;2023-05-10T10:59:43;15.50;99.90
27667;DHT22;15074;50.940;5.282;2023-05-10T11:02:10;15.70;99.90
27667;DHT22;15074;50.940;5.282;2023-05-10T11:04:42;15.60;99.90
27667;DHT22;15074;50.940;5.282;2023-05-10T11:07:19;15.80;99.90
27667;DHT22;15074;50.940;5.282;2023-05-10T11:09:48;15.80;99.90
27667;DHT22;15074;50.940;5.282;2023-05-10T11:12:14;15.80;99.90
27667;DHT22;15074;50.940;5.282;2023-05-10T11:14:40;15.80;99.90
27667;DHT22;15074;50.940;5.282;2023-05-10T11:17:26;15.90;99.90
27667;DHT22;15074;50.940;5.282;2023-05-10T11:20:14;15.80;99.90
27667;DHT22;15074;50.940;5.282;2023-05-10T11:22:52;15.70;99.90
27667;DHT22;15074;50.940;5.282;2023-05-10T11:25:19;15.70;99.90
27667;DHT22;15074;50.940;5.282;2023-05-10T11:27:47;15.80;99.90
27667;DHT22;15074;50.940;5.282;2023-05-10T11:30:14;15.80;99.90
27667;DHT22;15074;50.940;5.282;2023-05-10T11:32:41;16.10;99.90
27667;DHT22;15074;50.940;5.282;2023-05-10T11:35:10;16.50;99.90
27667;DHT22;15074;50.940;5.282;2023-05-10T11:37:37;16.60;99.90
27667;DHT22;15074;50.940;5.282;2023-05-10T11:40:08;16.60;99.90
27667;DHT22;15074;50.940;5.282;2023-05-10T11:42:39;16.70;99.90
27667;DHT22;15074;50.940;5.282;2023-05-10T11:45:05;16.80;99.90
27667;DHT22;15074;50.940;5.282;2023-05-10T11:47:31;16.60;99.90
27667;DHT22;15074;50.940;5.282;2023-05-10T11:49:57;16.70;99.90
27667;DHT22;15074;50.940;5.282;2023-05-10T11:52:23;16.60;99.90
27667;DHT22;15074;50.940;5.282;2023-05-10T11:54:52;16.60;99.90
27667;DHT22;15074;50.940;5.282;2023-05-10T11:57:19;16.60;99.90
27667;DHT22;15074;50.940;5.282;2023-05-10T11:59:46;16.50;99.90
27667;DHT22;15074;50.940;5.282;2023-05-10T12:02:15;16.50;99.90
27667;DHT22;15074;50.940;5.282;2023-05-10T12:04:41;16.50;99.90
27667;DHT22;15074;50.940;5.282;2023-05-10T12:07:07;16.70;99.90
27667;DHT22;15074;50.940;5.282;2023-05-10T12:09:33;16.80;99.90
27667;DHT22;15074;50.940;5.282;2023-05-10T12:12:02;16.60;99.90
27667;DHT22;15074;50.940;5.282;2023-05-10T12:14:28;16.50;99.90
27667;DHT22;15074;50.940;5.282;2023-05-10T12:16:58;16.20;99.90
27667;DHT22;15074;50.940;5.282;2023-05-10T12:19:24;16.10;99.90
27667;DHT22;15074;50.940;5.282;2023-05-10T12:21:50;16.20;99.90
27667;DHT22;15074;50.940;5.282;2023-05-10T12:24:15;16.20;99.90
27667;DHT22;15074;50.940;5.282;2023-05-10T12:26:50;16.20;99.90
27667;DHT22;15074;50.940;5.282;2023-05-10T12:29:18;16.30;99.90
27667;DHT22;15074;50.940;5.282;2023-05-10T12:32:04;16.40;99.90
27667;DHT22;15074;50.940;5.282;2023-05-10T12:34:34;16.50;99.90
27667;DHT22;15074;50.940;5.282;2023-05-10T12:37:04;16.60;99.90
27667;DHT22;15074;50.940;5.282;2023-05-10T12:39:43;16.70;99.90
27667;DHT22;15074;50.940;5.282;2023-05-10T12:42:09;16.80;99.90
27667;DHT22;15074;50.940;5.282;2023-05-10T12:44:38;16.90;99.90
27667;DHT22;15074;50.940;5.282;2023-05-10T12:47:08;16.90;99.90
27667;DHT22;15074;50.940;5.282;2023-05-10T12:49:34;17.10;99.90
27667;DHT22;15074;50.940;5.282;2023-05-10T12:51:59;17.50;99.90
27667;DHT22;15074;50.940;5.282;2023-05-10T12:54:25;17.70;99.90
27667;DHT22;15074;50.940;5.282;2023-05-10T12:56:51;17.90;99.90
27667;DHT22;15074;50.940;5.282;2023-05-10T12:59:17;18.10;99.90
27667;DHT22;15074;50.940;5.282;2023-05-10T13:01:42;17.90;99.90
27667;DHT22;15074;50.940;5.282;2023-05-10T13:04:08;18.20;99.90
27667;DHT22;15074;50.940;5.282;2023-05-10T13:06:33;18.40;99.90
27667;DHT22;15074;50.940;5.282;2023-05-10T13:09:00;18.60;99.90
27667;DHT22;15074;50.940;5.282;2023-05-10T13:11:26;18.50;99.90
27667;DHT22;15074;50.940;5.282;2023-05-10T13:13:52;18.40;99.90
27667;DHT22;15074;50.940;5.282;2023-05-10T13:16:17;18.30;99.90
27667;DHT22;15074;50.940;5.282;2023-05-10T13:18:43;17.80;99.90
27667;DHT22;15074;50.940;5.282;2023-05-10T13:21:09;18.10;99.90
27667;DHT22;15074;50.940;5.282;2023-05-10T13:23:35;18.20;99.90
27667;DHT22;15074;50.940;5.282;2023-05-10T13:26:00;18.10;99.90
27667;DHT22;15074;50.940;5.282;2023-05-10T13:28:26;18.10;99.90
27667;DHT22;15074;50.940;5.282;2023-05-10T13:30:52;18.60;99.90
27667;DHT22;15074;50.940;5.282;2023-05-10T13:33:17;19.00;99.90
27667;DHT22;15074;50.940;5.282;2023-05-10T13:35:43;19.30;99.90
27667;DHT22;15074;50.940;5.282;2023-05-10T13:38:09;19.50;99.90
27667;DHT22;15074;50.940;5.282;2023-05-10T13:40:35;19.20;99.90
27667;DHT22;15074;50.940;5.282;2023-05-10T13:43:01;19.50;99.90
27667;DHT22;15074;50.940;5.282;2023-05-10T13:45:27;19.50;99.90
27667;DHT22;15074;50.940;5.282;2023-05-10T13:47:53;19.00;99.90
27667;DHT22;15074;50.940;5.282;2023-05-10T13:50:18;18.80;99.90
27667;DHT22;15074;50.940;5.282;2023-05-10T13:52:44;18.90;99.90
27667;DHT22;15074;50.940;5.282;2023-05-10T13:55:10;19.00;99.90
27667;DHT22;15074;50.940;5.282;2023-05-10T13:57:37;18.80;99.90
27667;DHT22;15074;50.940;5.282;2023-05-10T14:00:03;18.40;99.90
27667;DHT22;15074;50.940;5.282;2023-05-10T14:02:30;18.40;99.90
27667;DHT22;15074;50.940;5.282;2023-05-10T14:04:55;18.60;99.90
27667;DHT22;15074;50.940;5.282;2023-05-10T14:07:21;19.00;99.90
27667;DHT22;15074;50.940;5.282;2023-05-10T14:09:47;19.30;99.90
27667;DHT22;15074;50.940;5.282;2023-05-10T14:12:12;19.10;99.90
27667;DHT22;15074;50.940;5.282;2023-05-10T14:14:39;18.50;99.90
27667;DHT22;15074;50.940;5.282;2023-05-10T14:17:05;18.50;99.90
27667;DHT22;15074;50.940;5.282;2023-05-10T14:19:31;18.20;99.90
27667;DHT22;15074;50.940;5.282;2023-05-10T14:21:59;18.40;99.90
27667;DHT22;15074;50.940;5.282;2023-05-10T14:24:24;17.90;99.90
27667;DHT22;15074;50.940;5.282;2023-05-10T14:26:50;17.60;99.90
27667;DHT22;15074;50.940;5.282;2023-05-10T14:29:19;17.60;99.90
27667;DHT22;15074;50.940;5.282;2023-05-10T14:31:45;17.90;99.90
27667;DHT22;15074;50.940;5.282;2023-05-10T14:34:11;18.20;99.90
27667;DHT22;15074;50.940;5.282;2023-05-10T14:36:36;18.60;99.90
27667;DHT22;15074;50.940;5.282;2023-05-10T14:39:02;18.40;99.90
27667;DHT22;15074;50.940;5.282;2023-05-10T14:41:28;18.50;99.90
27667;DHT22;15074;50.940;5.282;2023-05-10T14:43:55;18.70;99.90
27667;DHT22;15074;50.940;5.282;2023-05-10T14:46:21;18.70;99.90
27667;DHT22;15074;50.940;5.282;2023-05-10T14:48:47;18.50;99.90
27667;DHT22;15074;50.940;5.282;2023-05-10T14:51:12;18.70;99.90
27667;DHT22;15074;50.940;5.282;2023-05-10T14:53:38;18.90;99.90
27667;DHT22;15074;50.940;5.282;2023-05-10T14:56:04;19.10;99.90
27667;DHT22;15074;50.940;5.282;2023-05-10T14:58:30;18.90;99.90
27667;DHT22;15074;50.940;5.282;2023-05-10T15:00:56;18.80;99.90
27667;DHT22;15074;50.940;5.282;2023-05-10T15:03:22;18.90;99.90
27667;DHT22;15074;50.940;5.282;2023-05-10T15:05:48;19.00;99.90
27667;DHT22;15074;50.940;5.282;2023-05-10T15:08:13;19.30;99.90
27667;DHT22;15074;50.940;5.282;2023-05-10T15:10:39;19.30;99.90
27667;DHT22;15074;50.940;5.282;2023-05-10T15:13:05;18.90;99.90
27667;DHT22;15074;50.940;5.282;2023-05-10T15:15:31;18.60;99.90
27667;DHT22;15074;50.940;5.282;2023-05-10T15:17:57;18.50;99.90
27667;DHT22;15074;50.940;5.282;2023-05-10T15:20:23;18.40;99.90
27667;DHT22;15074;50.940;5.282;2023-05-10T15:22:48;18.40;99.90
27667;DHT22;15074;50.940;5.282;2023-05-10T15:25:14;18.50;99.90
27667;DHT22;15074;50.940;5.282;2023-05-10T15:27:41;18.70;99.90
27667;DHT22;15074;50.940;5.282;2023-05-10T15:30:09;18.70;99.90
27667;DHT22;15074;50.940;5.282;2023-05-10T15:32:35;18.60;99.90
27667;DHT22;15074;50.940;5.282;2023-05-10T15:35:00;18.60;99.90
27667;DHT22;15074;50.940;5.282;2023-05-10T15:37:26;18.30;99.90
27667;DHT22;15074;50.940;5.282;2023-05-10T15:39:52;18.20;99.90
27667;DHT22;15074;50.940;5.282;2023-05-10T15:42:18;18.30;99.90
27667;DHT22;15074;50.940;5.282;2023-05-10T15:44:44;18.40;99.90
27667;DHT22;15074;50.940;5.282;2023-05-10T15:47:10;18.60;99.90
27667;DHT22;15074;50.940;5.282;2023-05-10T15:49:35;18.50;99.90
27667;DHT22;15074;50.940;5.282;2023-05-10T15:52:01;18.40;99.90
27667;DHT22;15074;50.940;5.282;2023-05-10T15:54:27;18.60;99.90
27667;DHT22;15074;50.940;5.282;2023-05-10T15:56:53;18.50;99.90
27667;DHT22;15074;50.940;5.282;2023-05-10T15:59:19;18.40;99.90
27667;DHT22;15074;50.940;5.282;2023-05-10T16:01:45;18.70;99.90